sensor_id;sensor_type;location;lat;lon;timestamp;pressure;altitude;pressure_sealevel;temperature;humidity
5755;BME280;2902;42.130;24.732;2023-05-20T00:00:24;99694.56;;;16.06;88.24
5755;BME280;2902;42.130;24.732;2023-05-20T00:02:51;99701.19;;;16.03;87.85
5755;BME280;2902;42.130;24.732;2023-05-20T00:05:17;99696.38;;;15.93;87.62
5755;BME280;2902;42.130;24.732;2023-05-20T00:07:44;99691.41;;;15.97;87.64
5755;BME280;2902;42.130;24.732;2023-05-20T00:10:11;99690.91;;;16.00;87.30
5755;BME280;2902;42.130;24.732;2023-05-20T00:12:39;99682.47;;;15.85;87.32
5755;BME280;2902;42.130;24.732;2023-05-20T00:15:07;99692.34;;;15.84;87.82
5755;BME280;2902;42.130;24.732;2023-05-20T00:17:36;99696.53;;;15.80;87.99
5755;BME280;2902;42.130;24.732;2023-05-20T00:20:03;99685.59;;;15.82;87.99
5755;BME280;2902;42.130;24.732;2023-05-20T00:22:30;99686.66;;;15.81;88.03
5755;BME280;2902;42.130;24.732;2023-05-20T00:24:57;99681.66;;;15.84;88.39
5755;BME280;2902;42.130;24.732;2023-05-20T00:27:24;99683.41;;;15.90;88.19
5755;BME280;2902;42.130;24.732;2023-05-20T00:29:52;99681.66;;;15.84;87.89
5755;BME280;2902;42.130;24.732;2023-05-20T00:32:19;99681.81;;;15.71;87.79
5755;BME280;2902;42.130;24.732;2023-05-20T00:34:54;99679.44;;;15.63;88.70
5755;BME280;2902;42.130;24.732;2023-05-20T00:37:21;99675.66;;;15.53;88.94
5755;BME280;2902;42.130;24.732;2023-05-20T00:39:48;99684.19;;;15.43;89.35
5755;BME280;2902;42.130;24.732;2023-05-20T00:42:19;99679.38;;;15.27;90.18
5755;BME280;2902;42.130;24.732;2023-05-20T00:44:45;99681.50;;;15.19;90.60
5755;BME280;2902;42.130;24.732;2023-05-20T00:47:13;99674.00;;;15.09;91.20
5755;BME280;2902;42.130;24.732;2023-05-20T00:49:41;99674.69;;;15.23;91.07
5755;BME280;2902;42.130;24.732;2023-05-20T00:52:07;99678.34;;;15.28;91.05
5755;BME280;2902;42.130;24.732;2023-05-20T00:54:34;99676.69;;;15.27;91.10
5755;BME280;2902;42.130;24.732;2023-05-20T00:57:02;99676.50;;;15.29;91.34
5755;BME280;2902;42.130;24.732;2023-05-20T00:59:31;99679.53;;;15.32;91.90
5755;BME280;2902;42.130;24.732;2023-05-20T01:01:58;99672.72;;;15.36;91.14
5755;BME280;2902;42.130;24.732;2023-05-20T01:04:26;99667.69;;;15.46;91.30
5755;BME280;2902;42.130;24.732;2023-05-20T01:06:53;99667.63;;;15.53;90.55
5755;BME280;2902;42.130;24.732;2023-05-20T01:09:21;99667.53;;;15.59;91.00
5755;BME280;2902;42.130;24.732;2023-05-20T01:11:53;99665.06;;;15.58;90.33
5755;BME280;2902;42.130;24.732;2023-05-20T01:14:23;99662.19;;;15.59;90.55
5755;BME280;2902;42.130;24.732;2023-05-20T01:16:52;99661.25;;;15.65;90.58
5755;BME280;2902;42.130;24.732;2023-05-20T01:19:30;99661.25;;;15.65;90.38
5755;BME280;2902;42.130;24.732;2023-05-20T01:22:02;99661.03;;;15.67;90.81
5755;BME280;2902;42.130;24.732;2023-05-20T01:24:32;99659.56;;;15.71;90.82
5755;BME280;2902;42.130;24.732;2023-05-20T01:26:59;99659.25;;;15.79;90.21
5755;BME280;2902;42.130;24.732;2023-05-20T01:29:25;99661.94;;;15.79;90.22
5755;BME280;2902;42.130;24.732;2023-05-20T01:31:53;99667.81;;;15.69;90.81
5755;BME280;2902;42.130;24.732;2023-05-20T01:34:22;99656.81;;;15.59;91.54
5755;BME280;2902;42.130;24.732;2023-05-20T01:36:50;99657.72;;;15.35;92.53
5755;BME280;2902;42.130;24.732;2023-05-20T01:39:18;99654.38;;;15.15;93.45
5755;BME280;2902;42.130;24.732;2023-05-20T01:41:47;99654.94;;;14.99;94.17
5755;BME280;2902;42.130;24.732;2023-05-20T01:44:14;99645.78;;;14.89;95.27
5755;BME280;2902;42.130;24.732;2023-05-20T01:46:41;99654.94;;;14.81;95.50
5755;BME280;2902;42.130;24.732;2023-05-20T01:49:08;99641.50;;;14.88;95.77
5755;BME280;2902;42.130;24.732;2023-05-20T01:51:34;99649.88;;;14.91;95.71
5755;BME280;2902;42.130;24.732;2023-05-20T01:54:02;99641.13;;;14.84;96.27
5755;BME280;2902;42.130;24.732;2023-05-20T01:56:29;99634.56;;;14.80;95.93
5755;BME280;2902;42.130;24.732;2023-05-20T01:58:57;99635.72;;;14.91;96.30
5755;BME280;2902;42.130;24.732;2023-05-20T02:01:24;99647.53;;;15.01;96.00
5755;BME280;2902;42.130;24.732;2023-05-20T02:03:50;99645.59;;;15.08;95.58
5755;BME280;2902;42.130;24.732;2023-05-20T02:06:17;99647.03;;;15.11;94.60
5755;BME280;2902;42.130;24.732;2023-05-20T02:08:44;99647.25;;;15.09;94.42
5755;BME280;2902;42.130;24.732;2023-05-20T02:11:10;99642.19;;;15.01;95.28
5755;BME280;2902;42.130;24.732;2023-05-20T02:13:37;99622.13;;;14.92;95.67
5755;BME280;2902;42.130;24.732;2023-05-20T02:16:06;99627.00;;;14.95;95.80
5755;BME280;2902;42.130;24.732;2023-05-20T02:18:33;99620.22;;;14.75;95.54
5755;BME280;2902;42.130;24.732;2023-05-20T02:21:01;99623.41;;;14.83;95.93
5755;BME280;2902;42.130;24.732;2023-05-20T02:23:28;99625.34;;;14.76;95.29
5755;BME280;2902;42.130;24.732;2023-05-20T02:25:54;99619.25;;;14.69;95.50
5755;BME280;2902;42.130;24.732;2023-05-20T02:28:21;99624.44;;;14.64;96.11
5755;BME280;2902;42.130;24.732;2023-05-20T02:30:57;99635.56;;;14.61;95.54
5755;BME280;2902;42.130;24.732;2023-05-20T02:33:24;99629.28;;;14.49;96.36
5755;BME280;2902;42.130;24.732;2023-05-20T02:35:53;99633.84;;;14.42;97.25
5755;BME280;2902;42.130;24.732;2023-05-20T02:38:20;99624.53;;;14.51;97.79
5755;BME280;2902;42.130;24.732;2023-05-20T02:40:46;99625.28;;;14.58;96.86
5755;BME280;2902;42.130;24.732;2023-05-20T02:43:13;99619.41;;;14.50;96.55
5755;BME280;2902;42.130;24.732;2023-05-20T02:45:39;99623.34;;;14.47;96.83
5755;BME280;2902;42.130;24.732;2023-05-20T02:48:07;99629.97;;;14.38;96.32
5755;BME280;2902;42.130;24.732;2023-05-20T02:50:37;99627.13;;;14.33;96.61
5755;BME280;2902;42.130;24.732;2023-05-20T02:53:04;99624.50;;;14.27;97.11
5755;BME280;2902;42.130;24.732;2023-05-20T02:55:33;99618.28;;;14.33;96.88
5755;BME280;2902;42.130;24.732;2023-05-20T02:58:00;99619.72;;;14.35;95.87
5755;BME280;2902;42.130;24.732;2023-05-20T03:00:26;99622.78;;;14.39;96.28
5755;BME280;2902;42.130;24.732;2023-05-20T03:02:54;99630.31;;;14.48;95.51
5755;BME280;2902;42.130;24.732;2023-05-20T03:05:23;99635.44;;;14.50;95.69
5755;BME280;2902;42.130;24.732;2023-05-20T03:07:49;99631.94;;;14.49;95.38
5755;BME280;2902;42.130;24.732;2023-05-20T03:10:16;99637.25;;;14.56;94.64
5755;BME280;2902;42.130;24.732;2023-05-20T03:12:43;99636.81;;;14.59;94.36
5755;BME280;2902;42.130;24.732;2023-05-20T03:15:10;99637.63;;;14.59;93.04
5755;BME280;2902;42.130;24.732;2023-05-20T03:17:36;99635.97;;;14.58;92.92
5755;BME280;2902;42.130;24.732;2023-05-20T03:20:04;99642.09;;;14.65;92.85
5755;BME280;2902;42.130;24.732;2023-05-20T03:22:32;99638.66;;;14.58;92.04
5755;BME280;2902;42.130;24.732;2023-05-20T03:24:59;99649.25;;;14.47;92.25
5755;BME280;2902;42.130;24.732;2023-05-20T03:27:26;99641.06;;;14.42;93.45
5755;BME280;2902;42.130;24.732;2023-05-20T03:29:53;99649.13;;;14.35;92.88
5755;BME280;2902;42.130;24.732;2023-05-20T03:32:20;99657.09;;;14.42;92.79
5755;BME280;2902;42.130;24.732;2023-05-20T03:34:46;99669.38;;;14.49;93.12
5755;BME280;2902;42.130;24.732;2023-05-20T03:37:13;99687.81;;;14.57;92.82
5755;BME280;2902;42.130;24.732;2023-05-20T03:39:41;99698.47;;;14.64;92.79
5755;BME280;2902;42.130;24.732;2023-05-20T03:42:08;99705.38;;;14.71;92.68
5755;BME280;2902;42.130;24.732;2023-05-20T03:44:34;99703.22;;;14.86;92.58
5755;BME280;2902;42.130;24.732;2023-05-20T03:47:01;99694.88;;;15.01;92.32
5755;BME280;2902;42.130;24.732;2023-05-20T03:49:28;99697.81;;;15.17;91.19
5755;BME280;2902;42.130;24.732;2023-05-20T03:51:54;99699.16;;;15.26;90.53
5755;BME280;2902;42.130;24.732;2023-05-20T03:54:21;99694.47;;;15.46;90.17
5755;BME280;2902;42.130;24.732;2023-05-20T03:56:49;99695.06;;;15.66;89.17
5755;BME280;2902;42.130;24.732;2023-05-20T03:59:17;99694.78;;;16.04;89.66
5755;BME280;2902;42.130;24.732;2023-05-20T04:01:44;99689.81;;;16.78;87.14
5755;BME280;2902;42.130;24.732;2023-05-20T04:04:11;99709.94;;;17.68;82.82
5755;BME280;2902;42.130;24.732;2023-05-20T04:06:37;99717.50;;;18.50;79.79
5755;BME280;2902;42.130;24.732;2023-05-20T04:09:04;99716.44;;;19.28;75.40
5755;BME280;2902;42.130;24.732;2023-05-20T04:11:31;99730.13;;;20.03;72.28
5755;BME280;2902;42.130;24.732;2023-05-20T04:13:59;99735.50;;;20.73;69.21
5755;BME280;2902;42.130;24.732;2023-05-20T04:16:26;99742.03;;;21.03;67.56
5755;BME280;2902;42.130;24.732;2023-05-20T04:18:53;99737.38;;;20.67;66.62
5755;BME280;2902;42.130;24.732;2023-05-20T04:21:20;99731.63;;;20.37;68.05
5755;BME280;2902;42.130;24.732;2023-05-20T04:23:47;99722.69;;;20.58;66.91
5755;BME280;2902;42.130;24.732;2023-05-20T04:26:13;99728.59;;;21.08;65.86
5755;BME280;2902;42.130;24.732;2023-05-20T04:28:41;99743.69;;;21.41;63.36
5755;BME280;2902;42.130;24.732;2023-05-20T04:31:09;99731.81;;;21.83;63.25
5755;BME280;2902;42.130;24.732;2023-05-20T04:33:35;99742.00;;;22.23;60.58
5755;BME280;2902;42.130;24.732;2023-05-20T04:36:05;99736.47;;;22.59;60.47
5755;BME280;2902;42.130;24.732;2023-05-20T04:38:32;99735.63;;;22.69;58.80
5755;BME280;2902;42.130;24.732;2023-05-20T04:40:58;99734.31;;;22.86;57.44
5755;BME280;2902;42.130;24.732;2023-05-20T04:43:26;99731.34;;;22.93;56.46
5755;BME280;2902;42.130;24.732;2023-05-20T04:45:54;99733.22;;;22.77;57.10
5755;BME280;2902;42.130;24.732;2023-05-20T04:48:23;99732.53;;;22.30;58.54
5755;BME280;2902;42.130;24.732;2023-05-20T04:50:50;99721.00;;;21.83;60.72
5755;BME280;2902;42.130;24.732;2023-05-20T04:53:17;99732.50;;;22.20;61.19
5755;BME280;2902;42.130;24.732;2023-05-20T04:55:44;99721.81;;;22.75;58.48
5755;BME280;2902;42.130;24.732;2023-05-20T04:58:11;99741.09;;;23.49;55.81
5755;BME280;2902;42.130;24.732;2023-05-20T05:00:40;99738.88;;;23.71;54.02
5755;BME280;2902;42.130;24.732;2023-05-20T05:03:07;99741.84;;;23.84;52.96
5755;BME280;2902;42.130;24.732;2023-05-20T05:05:35;99728.66;;;24.26;56.07
5755;BME280;2902;42.130;24.732;2023-05-20T05:08:03;99737.75;;;24.50;51.27
5755;BME280;2902;42.130;24.732;2023-05-20T05:10:30;99737.78;;;24.94;50.02
5755;BME280;2902;42.130;24.732;2023-05-20T05:12:57;99733.66;;;25.64;48.37
5755;BME280;2902;42.130;24.732;2023-05-20T05:15:24;99730.78;;;26.02;47.10
5755;BME280;2902;42.130;24.732;2023-05-20T05:17:51;99726.00;;;26.55;45.47
5755;BME280;2902;42.130;24.732;2023-05-20T05:20:18;99730.06;;;26.76;47.77
5755;BME280;2902;42.130;24.732;2023-05-20T05:22:46;99727.28;;;27.13;47.20
5755;BME280;2902;42.130;24.732;2023-05-20T05:25:15;99728.34;;;27.49;44.61
5755;BME280;2902;42.130;24.732;2023-05-20T05:27:41;99723.91;;;27.66;43.76
5755;BME280;2902;42.130;24.732;2023-05-20T05:30:09;99727.19;;;27.82;42.30
5755;BME280;2902;42.130;24.732;2023-05-20T05:32:36;99729.94;;;27.95;43.18
5755;BME280;2902;42.130;24.732;2023-05-20T05:35:03;99733.66;;;28.75;39.96
5755;BME280;2902;42.130;24.732;2023-05-20T05:37:30;99746.47;;;28.88;39.89
5755;BME280;2902;42.130;24.732;2023-05-20T05:39:58;99734.84;;;28.83;40.93
5755;BME280;2902;42.130;24.732;2023-05-20T05:42:25;99735.31;;;29.20;40.43
5755;BME280;2902;42.130;24.732;2023-05-20T05:44:51;99742.81;;;29.59;37.74
5755;BME280;2902;42.130;24.732;2023-05-20T05:47:18;99742.66;;;29.86;37.66
5755;BME280;2902;42.130;24.732;2023-05-20T05:49:45;99732.53;;;30.51;37.13
5755;BME280;2902;42.130;24.732;2023-05-20T05:52:11;99729.63;;;30.56;36.65
5755;BME280;2902;42.130;24.732;2023-05-20T05:54:38;99726.41;;;31.14;34.46
5755;BME280;2902;42.130;24.732;2023-05-20T05:57:06;99713.22;;;30.73;36.81
5755;BME280;2902;42.130;24.732;2023-05-20T05:59:34;99714.44;;;30.50;36.83
5755;BME280;2902;42.130;24.732;2023-05-20T06:02:00;99711.25;;;30.65;34.59
5755;BME280;2902;42.130;24.732;2023-05-20T06:04:27;99710.88;;;30.41;36.37
5755;BME280;2902;42.130;24.732;2023-05-20T06:06:54;99715.53;;;30.15;37.50
5755;BME280;2902;42.130;24.732;2023-05-20T06:09:20;99716.84;;;30.26;36.94
5755;BME280;2902;42.130;24.732;2023-05-20T06:11:47;99711.19;;;30.23;38.43
5755;BME280;2902;42.130;24.732;2023-05-20T06:14:15;99719.28;;;30.36;36.93
5755;BME280;2902;42.130;24.732;2023-05-20T06:16:42;99717.03;;;30.47;35.73
5755;BME280;2902;42.130;24.732;2023-05-20T06:19:08;99715.53;;;30.15;37.33
5755;BME280;2902;42.130;24.732;2023-05-20T06:21:35;99702.84;;;29.89;37.49
5755;BME280;2902;42.130;24.732;2023-05-20T06:24:03;99694.16;;;29.95;38.51
5755;BME280;2902;42.130;24.732;2023-05-20T06:26:29;99707.66;;;29.83;37.24
5755;BME280;2902;42.130;24.732;2023-05-20T06:28:56;99699.00;;;29.59;38.02
5755;BME280;2902;42.130;24.732;2023-05-20T06:31:24;99703.00;;;29.23;38.58
5755;BME280;2902;42.130;24.732;2023-05-20T06:33:51;99705.50;;;28.97;39.40
5755;BME280;2902;42.130;24.732;2023-05-20T06:36:18;99695.47;;;29.06;39.13
5755;BME280;2902;42.130;24.732;2023-05-20T06:38:45;99706.50;;;29.23;39.90
5755;BME280;2902;42.130;24.732;2023-05-20T06:41:12;99688.03;;;29.28;40.72
5755;BME280;2902;42.130;24.732;2023-05-20T06:43:38;99697.91;;;29.38;37.46
5755;BME280;2902;42.130;24.732;2023-05-20T06:46:05;99689.34;;;29.31;41.16
5755;BME280;2902;42.130;24.732;2023-05-20T06:48:33;99682.31;;;29.69;39.12
5755;BME280;2902;42.130;24.732;2023-05-20T06:51:00;99692.50;;;29.86;37.56
5755;BME280;2902;42.130;24.732;2023-05-20T06:53:27;99692.88;;;30.01;36.82
5755;BME280;2902;42.130;24.732;2023-05-20T06:55:54;99692.28;;;30.13;37.53
5755;BME280;2902;42.130;24.732;2023-05-20T06:58:21;99696.03;;;30.25;35.75
5755;BME280;2902;42.130;24.732;2023-05-20T07:00:47;99685.53;;;30.19;36.66
5755;BME280;2902;42.130;24.732;2023-05-20T07:03:14;99691.22;;;30.39;38.04
5755;BME280;2902;42.130;24.732;2023-05-20T07:05:43;99687.97;;;30.37;37.57
5755;BME280;2902;42.130;24.732;2023-05-20T07:08:09;99698.00;;;30.50;34.82
5755;BME280;2902;42.130;24.732;2023-05-20T07:10:36;99697.34;;;30.53;33.71
5755;BME280;2902;42.130;24.732;2023-05-20T07:13:03;99692.34;;;30.64;33.56
5755;BME280;2902;42.130;24.732;2023-05-20T07:15:30;99702.88;;;30.79;34.06
5755;BME280;2902;42.130;24.732;2023-05-20T07:17:56;99704.16;;;30.81;33.93
5755;BME280;2902;42.130;24.732;2023-05-20T07:20:23;99705.41;;;30.58;33.60
5755;BME280;2902;42.130;24.732;2023-05-20T07:22:51;99699.63;;;30.51;34.63
5755;BME280;2902;42.130;24.732;2023-05-20T07:25:18;99697.47;;;30.23;33.02
5755;BME280;2902;42.130;24.732;2023-05-20T07:27:45;99702.81;;;30.36;33.81
5755;BME280;2902;42.130;24.732;2023-05-20T07:30:11;99706.09;;;30.55;33.80
5755;BME280;2902;42.130;24.732;2023-05-20T07:32:38;99697.41;;;30.79;32.90
5755;BME280;2902;42.130;24.732;2023-05-20T07:35:05;99700.59;;;30.81;32.42
5755;BME280;2902;42.130;24.732;2023-05-20T07:37:32;99709.97;;;30.88;32.30
5755;BME280;2902;42.130;24.732;2023-05-20T07:40:00;99710.94;;;30.92;32.96
5755;BME280;2902;42.130;24.732;2023-05-20T07:42:27;99702.88;;;30.70;32.68
5755;BME280;2902;42.130;24.732;2023-05-20T07:44:54;99713.72;;;30.75;32.16
5755;BME280;2902;42.130;24.732;2023-05-20T07:47:20;99706.56;;;30.66;30.51
5755;BME280;2902;42.130;24.732;2023-05-20T07:49:47;99698.38;;;30.83;30.51
5755;BME280;2902;42.130;24.732;2023-05-20T07:52:14;99705.63;;;31.04;31.07
5755;BME280;2902;42.130;24.732;2023-05-20T07:54:40;99700.91;;;31.13;31.46
5755;BME280;2902;42.130;24.732;2023-05-20T07:57:08;99705.28;;;31.23;31.96
5755;BME280;2902;42.130;24.732;2023-05-20T07:59:35;99705.88;;;31.37;31.61
5755;BME280;2902;42.130;24.732;2023-05-20T08:02:02;99700.03;;;31.47;31.87
5755;BME280;2902;42.130;24.732;2023-05-20T08:04:29;99698.78;;;31.73;31.59
5755;BME280;2902;42.130;24.732;2023-05-20T08:06:55;99678.16;;;31.67;29.58
5755;BME280;2902;42.130;24.732;2023-05-20T08:09:22;99692.16;;;31.83;29.42
5755;BME280;2902;42.130;24.732;2023-05-20T08:11:49;99694.13;;;31.82;29.68
5755;BME280;2902;42.130;24.732;2023-05-20T08:14:17;99692.97;;;31.75;28.84
5755;BME280;2902;42.130;24.732;2023-05-20T08:16:44;99695.66;;;31.92;28.59
5755;BME280;2902;42.130;24.732;2023-05-20T08:19:10;99700.56;;;32.15;28.22
5755;BME280;2902;42.130;24.732;2023-05-20T08:21:37;99697.94;;;31.98;28.32
5755;BME280;2902;42.130;24.732;2023-05-20T08:24:05;99695.09;;;31.78;29.34
5755;BME280;2902;42.130;24.732;2023-05-20T08:26:31;99688.78;;;31.77;29.12
5755;BME280;2902;42.130;24.732;2023-05-20T08:28:58;99684.84;;;31.95;28.50
5755;BME280;2902;42.130;24.732;2023-05-20T08:31:26;99683.28;;;32.06;28.89
5755;BME280;2902;42.130;24.732;2023-05-20T08:33:53;99673.84;;;32.16;29.57
5755;BME280;2902;42.130;24.732;2023-05-20T08:36:20;99682.38;;;32.31;28.41
5755;BME280;2902;42.130;24.732;2023-05-20T08:38:47;99676.88;;;32.31;28.24
5755;BME280;2902;42.130;24.732;2023-05-20T08:41:13;99685.72;;;32.37;28.12
5755;BME280;2902;42.130;24.732;2023-05-20T08:43:42;99688.22;;;32.50;27.87
5755;BME280;2902;42.130;24.732;2023-05-20T08:46:09;99681.25;;;32.24;28.31
5755;BME280;2902;42.130;24.732;2023-05-20T08:48:38;99679.56;;;31.73;29.54
5755;BME280;2902;42.130;24.732;2023-05-20T08:51:08;99683.22;;;31.94;29.56
5755;BME280;2902;42.130;24.732;2023-05-20T08:53:35;99683.72;;;31.88;28.68
5755;BME280;2902;42.130;24.732;2023-05-20T08:56:01;99688.38;;;31.58;28.49
5755;BME280;2902;42.130;24.732;2023-05-20T08:58:28;99679.19;;;31.54;28.75
5755;BME280;2902;42.130;24.732;2023-05-20T09:00:55;99679.19;;;31.54;28.72
5755;BME280;2902;42.130;24.732;2023-05-20T09:03:23;99684.56;;;31.42;29.36
5755;BME280;2902;42.130;24.732;2023-05-20T09:05:51;99686.03;;;30.46;30.39
5755;BME280;2902;42.130;24.732;2023-05-20T09:08:22;99673.41;;;30.11;31.28
5755;BME280;2902;42.130;24.732;2023-05-20T09:10:51;99668.69;;;29.56;32.68
5755;BME280;2902;42.130;24.732;2023-05-20T09:13:17;99668.41;;;29.35;32.44
5755;BME280;2902;42.130;24.732;2023-05-20T09:15:44;99667.97;;;29.42;32.81
5755;BME280;2902;42.130;24.732;2023-05-20T09:18:11;99672.50;;;29.46;32.22
5755;BME280;2902;42.130;24.732;2023-05-20T09:20:38;99663.47;;;29.37;32.42
5755;BME280;2902;42.130;24.732;2023-05-20T09:23:08;99671.22;;;29.52;31.92
5755;BME280;2902;42.130;24.732;2023-05-20T09:25:35;99667.31;;;29.36;32.72
5755;BME280;2902;42.130;24.732;2023-05-20T09:28:03;99666.16;;;29.59;32.62
5755;BME280;2902;42.130;24.732;2023-05-20T09:30:31;99663.72;;;29.58;33.19
5755;BME280;2902;42.130;24.732;2023-05-20T09:32:59;99667.88;;;29.55;33.46
5755;BME280;2902;42.130;24.732;2023-05-20T09:35:26;99677.16;;;29.68;33.71
5755;BME280;2902;42.130;24.732;2023-05-20T09:37:54;99665.38;;;29.67;34.03
5755;BME280;2902;42.130;24.732;2023-05-20T09:40:24;99672.31;;;28.90;35.41
5755;BME280;2902;42.130;24.732;2023-05-20T09:42:53;99661.16;;;29.00;35.35
5755;BME280;2902;42.130;24.732;2023-05-20T09:45:20;99668.53;;;28.99;34.93
5755;BME280;2902;42.130;24.732;2023-05-20T09:47:49;99662.38;;;29.16;35.52
5755;BME280;2902;42.130;24.732;2023-05-20T09:50:16;99653.44;;;28.80;36.11
5755;BME280;2902;42.130;24.732;2023-05-20T09:52:46;99644.72;;;28.56;36.88
5755;BME280;2902;42.130;24.732;2023-05-20T09:55:12;99647.66;;;29.03;34.99
5755;BME280;2902;42.130;24.732;2023-05-20T09:57:41;99645.22;;;29.33;33.90
5755;BME280;2902;42.130;24.732;2023-05-20T10:00:09;99650.16;;;29.22;34.44
5755;BME280;2902;42.130;24.732;2023-05-20T10:02:40;99639.19;;;29.44;33.88
5755;BME280;2902;42.130;24.732;2023-05-20T10:05:13;99644.25;;;29.59;33.85
5755;BME280;2902;42.130;24.732;2023-05-20T10:10:45;99638.69;;;28.45;36.94
5755;BME280;2902;42.130;24.732;2023-05-20T10:13:23;99632.31;;;28.50;36.31
5755;BME280;2902;42.130;24.732;2023-05-20T10:15:59;99632.97;;;28.77;36.47
5755;BME280;2902;42.130;24.732;2023-05-20T10:18:38;99627.31;;;28.74;36.21
5755;BME280;2902;42.130;24.732;2023-05-20T10:21:14;99637.81;;;28.23;37.29
5755;BME280;2902;42.130;24.732;2023-05-20T10:23:41;99620.25;;;28.37;37.34
5755;BME280;2902;42.130;24.732;2023-05-20T10:26:08;99628.06;;;28.44;37.96
5755;BME280;2902;42.130;24.732;2023-05-20T10:28:38;99628.16;;;27.90;38.17
5755;BME280;2902;42.130;24.732;2023-05-20T10:31:14;99628.13;;;28.17;38.10
5755;BME280;2902;42.130;24.732;2023-05-20T10:33:42;99626.63;;;28.33;38.04
5755;BME280;2902;42.130;24.732;2023-05-20T10:36:10;99644.72;;;28.07;37.30
5755;BME280;2902;42.130;24.732;2023-05-20T10:38:51;99643.72;;;28.03;33.98
5755;BME280;2902;42.130;24.732;2023-05-20T10:41:20;99633.19;;;28.10;33.47
5755;BME280;2902;42.130;24.732;2023-05-20T10:43:58;99632.78;;;28.03;32.97
5755;BME280;2902;42.130;24.732;2023-05-20T10:46:25;99629.56;;;27.74;33.46
5755;BME280;2902;42.130;24.732;2023-05-20T10:48:51;99624.00;;;27.65;34.18
5755;BME280;2902;42.130;24.732;2023-05-20T10:51:19;99622.47;;;27.32;34.91
5755;BME280;2902;42.130;24.732;2023-05-20T10:53:46;99633.00;;;27.25;35.92
5755;BME280;2902;42.130;24.732;2023-05-20T10:56:16;99637.34;;;26.94;37.73
5755;BME280;2902;42.130;24.732;2023-05-20T10:58:43;99633.78;;;26.94;38.36
5755;BME280;2902;42.130;24.732;2023-05-20T11:01:12;99648.94;;;26.86;37.48
5755;BME280;2902;42.130;24.732;2023-05-20T11:03:39;99646.69;;;27.07;37.17
5755;BME280;2902;42.130;24.732;2023-05-20T11:06:13;99632.28;;;26.88;37.86
5755;BME280;2902;42.130;24.732;2023-05-20T11:08:40;99634.91;;;26.93;38.42
5755;BME280;2902;42.130;24.732;2023-05-20T11:11:07;99630.31;;;26.75;38.32
5755;BME280;2902;42.130;24.732;2023-05-20T11:13:34;99633.81;;;26.62;37.47
5755;BME280;2902;42.130;24.732;2023-05-20T11:16:01;99629.97;;;26.44;37.86
5755;BME280;2902;42.130;24.732;2023-05-20T11:18:30;99641.38;;;26.28;38.95
5755;BME280;2902;42.130;24.732;2023-05-20T11:20:57;99630.56;;;26.23;38.75
5755;BME280;2902;42.130;24.732;2023-05-20T11:23:26;99626.13;;;26.27;38.83
5755;BME280;2902;42.130;24.732;2023-05-20T11:25:54;99622.47;;;26.36;39.17
5755;BME280;2902;42.130;24.732;2023-05-20T11:28:21;99621.91;;;26.53;38.75
5755;BME280;2902;42.130;24.732;2023-05-20T11:30:49;99612.59;;;26.59;39.38
5755;BME280;2902;42.130;24.732;2023-05-20T11:33:16;99620.84;;;26.54;38.45
5755;BME280;2902;42.130;24.732;2023-05-20T11:35:46;99616.09;;;26.78;38.28
5755;BME280;2902;42.130;24.732;2023-05-20T11:38:13;99608.41;;;26.80;37.58
5755;BME280;2902;42.130;24.732;2023-05-20T11:40:44;99613.72;;;26.90;36.20
5755;BME280;2902;42.130;24.732;2023-05-20T11:43:12;99610.91;;;26.95;37.81
5755;BME280;2902;42.130;24.732;2023-05-20T11:45:40;99605.84;;;27.02;37.11
5755;BME280;2902;42.130;24.732;2023-05-20T11:48:07;99601.19;;;27.02;37.53
5755;BME280;2902;42.130;24.732;2023-05-20T11:50:36;99616.16;;;26.59;36.69
5755;BME280;2902;42.130;24.732;2023-05-20T11:53:06;99609.88;;;26.59;38.22
5755;BME280;2902;42.130;24.732;2023-05-20T11:55:34;99612.44;;;26.32;38.12
5755;BME280;2902;42.130;24.732;2023-05-20T11:58:09;99609.94;;;26.54;37.61
5755;BME280;2902;42.130;24.732;2023-05-20T12:00:36;99612.38;;;26.55;38.00
5755;BME280;2902;42.130;24.732;2023-05-20T12:03:03;99619.06;;;26.63;36.22
5755;BME280;2902;42.130;24.732;2023-05-20T12:05:30;99612.50;;;26.64;36.03
5755;BME280;2902;42.130;24.732;2023-05-20T12:07:56;99609.19;;;26.67;36.24
5755;BME280;2902;42.130;24.732;2023-05-20T12:10:24;99615.38;;;26.54;35.89
5755;BME280;2902;42.130;24.732;2023-05-20T12:12:51;99609.50;;;26.47;36.94
5755;BME280;2902;42.130;24.732;2023-05-20T12:15:18;99608.28;;;26.53;38.01
5755;BME280;2902;42.130;24.732;2023-05-20T12:17:46;99603.88;;;26.57;37.95
5755;BME280;2902;42.130;24.732;2023-05-20T12:20:14;99608.84;;;26.36;37.87
5755;BME280;2902;42.130;24.732;2023-05-20T12:22:42;99595.94;;;26.42;37.39
5755;BME280;2902;42.130;24.732;2023-05-20T12:25:10;99544.66;;;26.12;37.81
5755;BME280;2902;42.130;24.732;2023-05-20T12:27:39;99591.47;;;26.32;38.46
5755;BME280;2902;42.130;24.732;2023-05-20T12:30:07;99596.72;;;26.29;37.86
5755;BME280;2902;42.130;24.732;2023-05-20T12:32:35;99591.03;;;26.25;38.97
5755;BME280;2902;42.130;24.732;2023-05-20T12:35:01;99587.50;;;26.25;39.04
5755;BME280;2902;42.130;24.732;2023-05-20T12:37:28;99585.81;;;26.29;38.64
5755;BME280;2902;42.130;24.732;2023-05-20T12:39:55;99584.19;;;26.09;38.81
5755;BME280;2902;42.130;24.732;2023-05-20T12:42:22;99576.84;;;26.10;39.46
5755;BME280;2902;42.130;24.732;2023-05-20T12:44:50;99555.72;;;26.02;39.17
5755;BME280;2902;42.130;24.732;2023-05-20T12:47:17;99570.75;;;25.76;39.34
5755;BME280;2902;42.130;24.732;2023-05-20T12:49:44;99563.69;;;25.33;40.87
5755;BME280;2902;42.130;24.732;2023-05-20T12:52:11;99556.00;;;25.40;40.64
5755;BME280;2902;42.130;24.732;2023-05-20T12:54:37;99553.19;;;25.45;40.74
5755;BME280;2902;42.130;24.732;2023-05-20T12:57:05;99558.66;;;25.45;40.94
5755;BME280;2902;42.130;24.732;2023-05-20T12:59:31;99542.31;;;25.45;40.61
5755;BME280;2902;42.130;24.732;2023-05-20T13:01:59;99541.22;;;25.46;40.33
5755;BME280;2902;42.130;24.732;2023-05-20T13:04:26;99532.13;;;25.55;40.73
5755;BME280;2902;42.130;24.732;2023-05-20T13:06:53;99539.84;;;25.67;39.01
5755;BME280;2902;42.130;24.732;2023-05-20T13:09:20;99530.44;;;25.78;38.95
5755;BME280;2902;42.130;24.732;2023-05-20T13:11:47;99522.66;;;25.90;39.26
5755;BME280;2902;42.130;24.732;2023-05-20T13:14:13;99523.56;;;26.04;40.43